Time;durP1;ratioP1;P1;durP2;ratioP2;P2;SDS_P1;SDS_P2;PMS_P1;PMS_P2;Temp;Humidity;BMP_temperature;BMP_pressure;BME280_temperature;BME280_humidity;BME280_pressure;Samples;Min_cycle;Max_cycle;Signal;HPM_P1;HPM_P2
2022/12/03 00:00:32;;;;;;;27.50;15.23;;;3.50;99.90;;;;;;5092884;28;20279;-79
2022/12/03 00:02:59;;;;;;;28.53;16.30;;;3.50;99.90;;;;;;5092431;28;20331;-78
2022/12/03 00:05:26;;;;;;;27.50;15.60;;;3.50;99.90;;;;;;5092090;28;20181;-79
2022/12/03 00:07:53;;;;;;;31.83;16.43;;;3.50;99.90;;;;;;5080635;28;20197;-78
2022/12/03 00:10:21;;;;;;;31.70;16.87;;;3.50;99.90;;;;;;5072490;28;20292;-79
2022/12/03 00:12:48;;;;;;;27.00;16.70;;;3.50;99.90;;;;;;5073373;28;20246;-79
2022/12/03 00:15:15;;;;;;;29.33;16.03;;;3.50;99.90;;;;;;5092267;28;20511;-80
2022/12/03 00:17:42;;;;;;;28.40;15.93;;;3.50;99.90;;;;;;5091469;28;20204;-79
2022/12/03 00:20:16;;;;;;;29.60;16.90;;;3.50;99.90;;;;;;5091275;28;20620;-79
2022/12/03 00:22:43;;;;;;;31.10;16.57;;;3.50;99.90;;;;;;5092398;28;20608;-80
2022/12/03 00:25:11;;;;;;;27.57;16.50;;;3.50;99.90;;;;;;5092053;28;20211;-79
2022/12/03 00:27:39;;;;;;;28.67;15.73;;;3.50;99.90;;;;;;5080028;28;20681;-81
2022/12/03 00:30:07;;;;;;;27.37;16.07;;;3.50;99.90;;;;;;5071754;28;20303;-80
2022/12/03 00:32:37;;;;;;;27.87;16.23;;;3.50;99.90;;;;;;5071340;28;20518;-79
2022/12/03 00:35:04;;;;;;;26.90;16.03;;;3.50;99.90;;;;;;5072323;28;20609;-80
2022/12/03 00:37:31;;;;;;;25.00;14.73;;;3.40;99.90;;;;;;5071981;28;20561;-79
2022/12/03 00:39:58;;;;;;;30.83;16.17;;;3.40;99.90;;;;;;5073484;28;20299;-80
2022/12/03 00:42:25;;;;;;;25.63;15.47;;;3.50;99.90;;;;;;5075890;28;20287;-79
2022/12/03 00:44:53;;;;;;;27.57;15.97;;;3.50;99.90;;;;;;5076131;28;20313;-78
2022/12/03 00:47:20;;;;;;;26.40;15.30;;;3.50;99.90;;;;;;5075047;28;20223;-79
2022/12/03 00:49:47;;;;;;;29.60;16.20;;;3.50;99.90;;;;;;5075763;28;20204;-80
2022/12/03 00:52:13;;;;;;;27.87;15.70;;;3.50;99.90;;;;;;5076199;28;20201;-79
2022/12/03 00:54:40;;;;;;;28.67;16.87;;;3.60;99.90;;;;;;5075224;28;20284;-79
2022/12/03 00:57:07;;;;;;;29.77;16.73;;;3.60;99.90;;;;;;5075784;28;20280;-80
2022/12/03 00:59:34;;;;;;;27.10;14.97;;;3.70;99.90;;;;;;5074865;28;20205;-80
2022/12/03 01:02:02;;;;;;;29.53;16.87;;;3.70;99.90;;;;;;5074688;28;20205;-79
2022/12/03 01:04:29;;;;;;;32.63;17.77;;;3.70;99.90;;;;;;5075203;28;20497;-79
2022/12/03 01:06:57;;;;;;;28.87;16.03;;;3.70;99.90;;;;;;5074442;28;20202;-80
2022/12/03 01:09:24;;;;;;;25.53;15.23;;;3.80;99.90;;;;;;5075623;28;20203;-79
2022/12/03 01:11:51;;;;;;;28.97;16.77;;;3.80;99.90;;;;;;5075150;28;20309;-79
2022/12/03 01:14:19;;;;;;;26.57;15.77;;;3.80;99.90;;;;;;5075182;28;20194;-82
2022/12/03 01:16:47;;;;;;;28.83;16.50;;;3.80;99.90;;;;;;5086645;28;20228;-77
2022/12/03 01:19:16;;;;;;;26.40;16.17;;;3.80;99.90;;;;;;5095998;28;20266;-79
2022/12/03 01:21:44;;;;;;;25.47;15.27;;;3.80;99.90;;;;;;5095009;28;20224;-79
2022/12/03 01:24:11;;;;;;;27.27;15.00;;;3.80;99.90;;;;;;5095266;28;20591;-79
2022/12/03 01:26:38;;;;;;;27.43;14.43;;;3.80;99.90;;;;;;5079263;28;20216;-79
2022/12/03 01:29:06;;;;;;;27.30;16.17;;;3.80;99.90;;;;;;5074553;28;20197;-80
2022/12/03 01:34:18;;;;;;;27.87;15.57;;;3.80;99.90;;;;;;5075483;28;20197;-79
2022/12/03 01:36:45;;;;;;;28.57;17.33;;;3.80;99.90;;;;;;5074267;28;20198;-79
2022/12/03 01:39:12;;;;;;;29.10;15.50;;;3.90;99.90;;;;;;5074712;28;20205;-79
2022/12/03 01:41:39;;;;;;;27.53;15.67;;;3.90;99.90;;;;;;5074892;28;20296;-79
2022/12/03 01:44:15;;;;;;;23.80;14.90;;;3.90;99.90;;;;;;5074088;28;20286;-79
2022/12/03 01:46:42;;;;;;;26.30;16.10;;;3.90;99.90;;;;;;5074284;28;20204;-79
2022/12/03 01:49:13;;;;;;;28.67;17.73;;;3.90;99.90;;;;;;5073993;28;20216;-80
2022/12/03 01:51:42;;;;;;;30.27;16.30;;;4.00;99.90;;;;;;5073972;28;21107;-79
2022/12/03 01:54:16;;;;;;;29.10;17.07;;;4.00;99.90;;;;;;5074597;28;20508;-79
2022/12/03 01:56:43;;;;;;;27.93;17.57;;;4.00;99.90;;;;;;5073842;28;20207;-80
2022/12/03 01:59:15;;;;;;;25.83;16.40;;;4.00;99.90;;;;;;5074277;28;20215;-77
2022/12/03 02:01:42;;;;;;;28.00;16.57;;;4.00;99.90;;;;;;5074286;28;20200;-80
2022/12/03 02:04:12;;;;;;;30.10;17.43;;;3.90;99.90;;;;;;5073830;28;20221;-79
2022/12/03 02:06:40;;;;;;;25.47;14.97;;;3.90;99.90;;;;;;5074093;28;20208;-80
2022/12/03 02:09:09;;;;;;;29.17;16.40;;;3.80;99.90;;;;;;5074361;28;20786;-79
2022/12/03 02:11:40;;;;;;;29.10;16.57;;;3.90;99.90;;;;;;5073853;28;20801;-80
2022/12/03 02:14:10;;;;;;;27.30;16.63;;;3.80;99.90;;;;;;5074218;28;20591;-80
2022/12/03 02:16:39;;;;;;;27.73;15.60;;;3.80;99.90;;;;;;5073868;28;20668;-78
2022/12/03 02:19:14;;;;;;;26.47;16.50;;;3.70;99.90;;;;;;5073091;28;20197;-79
2022/12/03 02:21:53;;;;;;;29.03;16.37;;;3.70;99.90;;;;;;5074509;28;20334;-78
2022/12/03 02:24:27;;;;;;;27.97;16.50;;;3.70;99.90;;;;;;5073267;28;20524;-79
2022/12/03 02:26:55;;;;;;;30.90;17.53;;;3.70;99.90;;;;;;5073914;28;20190;-79
2022/12/03 02:29:22;;;;;;;31.70;18.03;;;3.70;99.90;;;;;;5073892;28;20213;-79
2022/12/03 02:31:49;;;;;;;29.83;17.47;;;3.60;99.90;;;;;;5073394;28;20300;-79
2022/12/03 02:34:38;;;;;;;28.70;16.83;;;3.60;99.90;;;;;;5073517;28;20189;-81
2022/12/03 02:37:07;;;;;;;27.60;16.00;;;3.50;99.90;;;;;;5072893;28;20590;-79
2022/12/03 02:39:37;;;;;;;37.33;19.20;;;3.60;99.90;;;;;;5072712;28;20619;-78
2022/12/03 02:44:52;;;;;;;32.53;16.10;;;3.70;99.90;;;;;;5073503;28;20220;-80
2022/12/03 02:47:21;;;;;;;35.40;19.17;;;3.70;99.90;;;;;;5072746;28;20295;-79
2022/12/03 02:49:48;;;;;;;35.00;17.67;;;3.70;99.90;;;;;;5073258;28;20500;-80
2022/12/03 02:52:14;;;;;;;32.67;17.00;;;3.70;99.90;;;;;;5073383;28;20207;-79
2022/12/03 02:54:41;;;;;;;31.43;17.90;;;3.70;99.90;;;;;;5072628;28;20294;-79
2022/12/03 02:57:10;;;;;;;33.90;17.63;;;3.70;99.90;;;;;;5089120;28;20201;-80
2022/12/03 02:59:37;;;;;;;32.33;17.87;;;3.70;99.90;;;;;;5092647;28;20207;-77
2022/12/03 03:02:04;;;;;;;34.97;19.00;;;3.70;99.90;;;;;;5090242;28;20215;-79
2022/12/03 03:04:31;;;;;;;32.17;17.47;;;3.70;99.90;;;;;;5071840;28;20384;-79
2022/12/03 03:06:58;;;;;;;29.40;16.83;;;3.70;99.90;;;;;;5072109;28;20637;-80
2022/12/03 03:09:25;;;;;;;35.43;18.67;;;3.80;99.90;;;;;;5072902;28;20211;-80
2022/12/03 03:11:52;;;;;;;30.43;16.40;;;3.80;99.90;;;;;;5073232;28;20204;-79
2022/12/03 03:14:20;;;;;;;32.33;17.90;;;3.80;99.90;;;;;;5072272;28;20289;-79
2022/12/03 03:16:54;;;;;;;34.17;16.77;;;3.90;99.90;;;;;;5072562;28;20224;-79
2022/12/03 03:19:22;;;;;;;32.33;16.90;;;3.90;99.90;;;;;;5072656;28;20219;-78
2022/12/03 03:21:49;;;;;;;33.30;17.73;;;3.90;99.90;;;;;;5072419;28;20201;-79
2022/12/03 03:24:16;;;;;;;33.03;17.50;;;4.00;99.90;;;;;;5072898;28;20302;-79
2022/12/03 03:26:43;;;;;;;30.27;17.80;;;4.00;99.90;;;;;;5072214;28;20201;-79
2022/12/03 03:29:10;;;;;;;28.37;16.07;;;4.00;99.90;;;;;;5072367;28;20204;-80
2022/12/03 03:31:39;;;;;;;33.87;17.43;;;4.00;99.90;;;;;;5072940;28;20209;-80
2022/12/03 03:34:06;;;;;;;27.53;15.30;;;4.10;99.90;;;;;;5077634;28;20208;-79
2022/12/03 03:36:33;;;;;;;30.77;17.47;;;4.10;99.90;;;;;;5092079;28;20193;-80
2022/12/03 03:39:00;;;;;;;32.87;18.23;;;4.10;99.90;;;;;;5093087;28;20292;-80
2022/12/03 03:41:29;;;;;;;30.40;17.83;;;4.20;99.90;;;;;;5091420;28;20200;-79
2022/12/03 03:43:56;;;;;;;29.67;18.17;;;4.20;99.90;;;;;;5092661;28;20217;-78
2022/12/03 03:46:23;;;;;;;32.53;17.53;;;4.30;99.90;;;;;;5092407;28;20280;-79
2022/12/03 03:48:52;;;;;;;30.53;17.47;;;4.30;99.90;;;;;;5092304;28;20582;-78
2022/12/03 03:51:19;;;;;;;29.77;18.07;;;4.30;99.90;;;;;;5072947;28;20244;-79
2022/12/03 03:53:48;;;;;;;31.67;17.57;;;4.40;99.90;;;;;;5072771;28;20198;-79
2022/12/03 03:56:17;;;;;;;30.83;16.97;;;4.40;99.90;;;;;;5072102;28;20197;-78
2022/12/03 03:58:44;;;;;;;28.00;16.70;;;4.40;99.90;;;;;;5072090;28;20193;-79
2022/12/03 04:01:13;;;;;;;31.37;17.43;;;4.30;99.90;;;;;;5072116;28;20227;-79
2022/12/03 04:03:40;;;;;;;28.77;16.50;;;4.40;99.90;;;;;;5071410;28;20225;-79
2022/12/03 04:06:10;;;;;;;30.33;17.53;;;4.40;99.90;;;;;;5071858;28;20204;-79
2022/12/03 04:08:36;;;;;;;28.50;16.80;;;4.40;99.90;;;;;;5072168;28;20251;-78
2022/12/03 04:13:47;;;;;;;30.33;16.43;;;4.50;99.90;;;;;;5084056;28;20188;-79
2022/12/03 04:16:14;;;;;;;27.37;15.60;;;4.50;99.90;;;;;;5078566;28;20217;-79
2022/12/03 04:18:44;;;;;;;25.07;15.50;;;4.50;99.90;;;;;;5078535;28;20204;-79
2022/12/03 04:23:59;;;;;;;23.73;14.70;;;4.50;99.90;;;;;;5078692;28;20212;-79
2022/12/03 04:29:10;;;;;;;28.10;15.87;;;4.50;99.90;;;;;;5078622;28;20269;-79
2022/12/03 04:37:08;;;;;;;28.03;16.70;;;4.50;99.90;;;;;;5099202;28;20260;-80
2022/12/03 04:39:36;;;;;;;31.27;16.93;;;4.50;99.90;;;;;;5098164;28;20216;-79
2022/12/03 04:42:03;;;;;;;27.70;17.33;;;4.40;99.90;;;;;;5098948;28;20667;-79
2022/12/03 04:44:34;;;;;;;25.13;16.00;;;4.40;99.90;;;;;;5078842;28;20225;-79
2022/12/03 04:47:03;;;;;;;28.67;16.13;;;4.40;99.90;;;;;;5078228;28;20220;-79
2022/12/03 04:49:30;;;;;;;26.20;16.87;;;4.40;99.90;;;;;;5078451;28;20236;-80
2022/12/03 04:51:57;;;;;;;26.00;16.33;;;4.40;99.90;;;;;;5078108;28;20197;-79
2022/12/03 04:54:25;;;;;;;26.90;17.23;;;4.50;99.90;;;;;;5078702;28;20288;-79
2022/12/03 04:56:52;;;;;;;26.07;15.57;;;4.50;99.90;;;;;;5078186;28;20198;-80
2022/12/03 04:59:19;;;;;;;31.93;17.13;;;4.50;99.90;;;;;;5077832;28;20205;-79
2022/12/03 05:01:46;;;;;;;27.70;16.50;;;4.50;99.90;;;;;;5078474;28;20197;-79
2022/12/03 05:04:13;;;;;;;26.57;15.97;;;4.50;99.90;;;;;;5078471;28;20224;-79
2022/12/03 05:06:41;;;;;;;26.53;16.03;;;4.50;99.90;;;;;;5077755;28;20301;-80
2022/12/03 05:09:08;;;;;;;30.10;17.40;;;4.50;99.90;;;;;;5088352;28;20204;-78
2022/12/03 05:11:36;;;;;;;25.20;15.97;;;4.40;99.90;;;;;;5098655;28;20200;-79
2022/12/03 05:14:04;;;;;;;26.57;17.17;;;4.50;99.90;;;;;;5098139;28;20279;-77
2022/12/03 05:16:30;;;;;;;27.87;18.33;;;4.40;99.90;;;;;;5087973;28;20633;-78
2022/12/03 05:18:57;;;;;;;27.80;17.00;;;4.40;99.90;;;;;;5078422;28;20201;-79
2022/12/03 05:21:24;;;;;;;31.00;17.63;;;4.40;99.90;;;;;;5081970;28;20208;-79
2022/12/03 05:23:51;;;;;;;28.43;16.67;;;4.40;99.90;;;;;;5098320;28;20210;-79
2022/12/03 05:26:18;;;;;;;27.57;16.53;;;4.40;99.90;;;;;;5095849;28;20291;-79
2022/12/03 05:28:46;;;;;;;29.60;17.53;;;4.40;99.90;;;;;;5084908;28;20259;-79
2022/12/03 05:31:13;;;;;;;28.07;17.33;;;4.40;99.90;;;;;;5074909;28;20197;-84
2022/12/03 05:33:40;;;;;;;25.97;16.33;;;4.30;99.90;;;;;;5074490;28;20209;-80
2022/12/03 05:36:07;;;;;;;28.87;16.90;;;4.40;99.90;;;;;;5073633;28;20209;-79
2022/12/03 05:38:34;;;;;;;28.70;17.50;;;4.40;99.90;;;;;;5074844;28;20288;-78
2022/12/03 05:41:01;;;;;;;27.10;17.13;;;4.40;99.90;;;;;;5075228;28;20202;-78
2022/12/03 05:43:27;;;;;;;29.97;18.23;;;4.30;99.90;;;;;;5073769;28;20209;-79
2022/12/03 05:45:55;;;;;;;26.93;17.17;;;4.30;99.90;;;;;;5074766;28;20232;-82
2022/12/03 05:48:22;;;;;;;26.47;16.17;;;4.30;99.90;;;;;;5073937;28;20280;-78
2022/12/03 05:50:48;;;;;;;28.53;17.07;;;4.30;99.90;;;;;;5074288;28;20258;-79
2022/12/03 05:53:16;;;;;;;27.33;16.97;;;4.30;99.90;;;;;;5074297;28;20510;-79
2022/12/03 05:55:43;;;;;;;25.70;16.57;;;4.30;99.90;;;;;;5074036;28;20200;-81
2022/12/03 05:58:11;;;;;;;27.17;16.17;;;4.30;99.90;;;;;;5074235;28;20201;-79
2022/12/03 06:00:38;;;;;;;25.43;16.57;;;4.30;99.90;;;;;;5074147;28;20481;-79
2022/12/03 06:03:07;;;;;;;26.30;16.67;;;4.30;99.90;;;;;;5073497;28;20193;-79
2022/12/03 06:05:34;;;;;;;27.83;18.10;;;4.30;99.90;;;;;;5074485;28;20517;-81
2022/12/03 06:08:01;;;;;;;30.67;18.70;;;4.30;99.90;;;;;;5074369;28;20197;-80
2022/12/03 06:10:28;;;;;;;28.63;17.37;;;4.40;99.90;;;;;;5073643;28;20208;-81
2022/12/03 06:12:55;;;;;;;25.83;16.13;;;4.40;99.90;;;;;;5092610;28;20295;-79
2022/12/03 06:15:22;;;;;;;27.47;17.07;;;4.30;99.90;;;;;;5084334;28;20221;-79
2022/12/03 06:17:49;;;;;;;23.77;14.93;;;4.40;99.90;;;;;;5072986;28;20205;-79
2022/12/03 06:20:19;;;;;;;27.23;15.73;;;4.40;99.90;;;;;;5073598;28;20197;-77
2022/12/03 06:22:46;;;;;;;28.97;17.27;;;4.30;99.90;;;;;;5073731;28;20201;-80
2022/12/03 06:25:14;;;;;;;27.53;16.97;;;4.30;99.90;;;;;;5073205;28;20317;-78
2022/12/03 06:27:41;;;;;;;28.83;17.43;;;4.30;99.90;;;;;;5073588;28;20324;-80
2022/12/03 06:30:09;;;;;;;25.07;15.50;;;4.20;99.90;;;;;;5073744;28;20205;-81
2022/12/03 06:32:36;;;;;;;26.20;16.77;;;4.30;99.90;;;;;;5073607;28;20263;-78
2022/12/03 06:35:03;;;;;;;27.27;17.13;;;4.20;99.90;;;;;;5073754;28;20206;-79
2022/12/03 06:37:31;;;;;;;27.20;15.60;;;4.20;99.90;;;;;;5073129;28;20201;-80
2022/12/03 06:39:58;;;;;;;25.10;16.57;;;4.30;99.90;;;;;;5074366;28;20213;-78
2022/12/03 06:42:25;;;;;;;26.13;16.83;;;4.30;99.90;;;;;;5073982;28;20201;-79
2022/12/03 06:44:52;;;;;;;23.63;15.37;;;4.30;99.90;;;;;;5073406;28;20216;-79
2022/12/03 06:47:19;;;;;;;26.60;16.50;;;4.30;99.90;;;;;;5072880;28;20282;-78
2022/12/03 06:49:45;;;;;;;26.77;17.60;;;4.20;99.90;;;;;;5074061;28;20197;-80
2022/12/03 06:52:12;;;;;;;26.87;16.43;;;4.20;99.90;;;;;;5073343;28;20208;-79
2022/12/03 06:54:40;;;;;;;27.63;17.37;;;4.20;99.90;;;;;;5073360;28;20197;-79
2022/12/03 06:57:07;;;;;;;23.27;15.50;;;4.20;99.90;;;;;;5073306;28;20209;-79
2022/12/03 06:59:36;;;;;;;25.40;15.73;;;4.20;99.90;;;;;;5073044;28;20540;-79
2022/12/03 07:02:03;;;;;;;26.80;17.23;;;4.30;99.90;;;;;;5073158;28;20204;-80
2022/12/03 07:04:30;;;;;;;24.67;15.63;;;4.20;99.90;;;;;;5077628;28;20231;-80
2022/12/03 07:06:57;;;;;;;25.43;16.13;;;4.30;99.90;;;;;;5090614;28;20292;-80
2022/12/03 07:09:24;;;;;;;29.33;16.87;;;4.30;99.90;;;;;;5093479;28;20200;-78
2022/12/03 07:11:52;;;;;;;26.13;17.13;;;4.30;99.90;;;;;;5089915;28;20207;-80
2022/12/03 07:14:19;;;;;;;27.07;15.63;;;4.30;99.90;;;;;;5090315;28;20300;-79
2022/12/03 07:16:46;;;;;;;26.97;17.50;;;4.30;99.90;;;;;;5093087;28;20219;-79
2022/12/03 07:19:13;;;;;;;25.63;16.83;;;4.30;99.90;;;;;;5093509;28;20588;-80
2022/12/03 07:21:40;;;;;;;25.00;16.17;;;4.30;99.90;;;;;;5088587;28;20197;-79
2022/12/03 07:24:07;;;;;;;25.83;17.33;;;4.30;99.90;;;;;;5072971;28;20193;-80
2022/12/03 07:26:34;;;;;;;25.73;16.63;;;4.20;99.90;;;;;;5072930;28;20200;-81
2022/12/03 07:29:02;;;;;;;24.60;15.77;;;4.30;99.90;;;;;;5072428;28;20237;-79
2022/12/03 07:31:29;;;;;;;26.07;16.03;;;4.30;99.90;;;;;;5073414;28;20685;-77
2022/12/03 07:33:56;;;;;;;22.90;15.23;;;4.30;99.90;;;;;;5072260;28;20212;-77
2022/12/03 07:36:23;;;;;;;26.97;16.90;;;4.20;99.90;;;;;;5072132;28;20193;-77
2022/12/03 07:38:50;;;;;;;24.67;16.30;;;4.20;99.90;;;;;;5072752;28;20204;-80
2022/12/03 07:41:17;;;;;;;25.20;16.63;;;4.20;99.90;;;;;;5072179;28;20201;-80
2022/12/03 07:43:44;;;;;;;25.77;16.27;;;4.20;99.90;;;;;;5073721;28;20193;-80
2022/12/03 07:46:12;;;;;;;27.17;16.37;;;4.20;99.90;;;;;;5092900;28;20225;-81
2022/12/03 07:48:39;;;;;;;26.70;17.53;;;4.20;99.90;;;;;;5091901;28;20207;-82
2022/12/03 07:51:06;;;;;;;27.23;16.97;;;4.20;99.90;;;;;;5092913;28;20200;-81
2022/12/03 07:53:34;;;;;;;30.03;17.53;;;4.20;99.90;;;;;;5079441;28;20205;-81
2022/12/03 07:56:02;;;;;;;25.13;15.87;;;4.20;99.90;;;;;;5073151;28;20236;-81
2022/12/03 07:58:28;;;;;;;29.00;17.50;;;4.20;99.90;;;;;;5081253;28;20213;-81
2022/12/03 08:00:55;;;;;;;24.93;16.20;;;4.20;99.90;;;;;;5072358;28;20228;-81
2022/12/03 08:03:24;;;;;;;26.87;17.37;;;4.20;99.90;;;;;;5071927;28;20259;-80
2022/12/03 08:05:51;;;;;;;27.17;16.87;;;4.20;99.90;;;;;;5072709;28;20225;-81
2022/12/03 08:08:17;;;;;;;27.57;16.80;;;4.20;99.90;;;;;;5071962;28;20284;-81
2022/12/03 08:10:44;;;;;;;26.37;18.50;;;4.20;99.90;;;;;;5071347;28;20205;-81
2022/12/03 08:13:14;;;;;;;25.63;16.43;;;4.10;99.90;;;;;;5072421;28;20205;-82
2022/12/03 08:15:41;;;;;;;26.17;16.43;;;4.10;99.90;;;;;;5072378;28;20221;-82
2022/12/03 08:18:14;;;;;;;29.00;18.13;;;4.20;99.90;;;;;;5071681;28;20193;-81
2022/12/03 08:20:44;;;;;;;25.33;16.47;;;4.20;99.90;;;;;;5072504;28;20189;-80
2022/12/03 08:23:15;;;;;;;24.83;15.90;;;4.20;99.90;;;;;;5070954;28;20215;-80
2022/12/03 08:25:42;;;;;;;25.73;16.57;;;4.10;99.90;;;;;;5071644;28;20252;-80
2022/12/03 08:28:13;;;;;;;24.83;16.63;;;4.20;99.90;;;;;;5071957;28;20236;-80
2022/12/03 08:30:40;;;;;;;27.50;17.27;;;4.10;99.90;;;;;;5071038;28;20238;-80
2022/12/03 08:33:16;;;;;;;30.73;17.50;;;4.10;99.90;;;;;;5071965;28;20287;-81
2022/12/03 08:35:49;;;;;;;25.83;16.20;;;4.10;99.90;;;;;;5071962;28;20540;-83
2022/12/03 08:38:19;;;;;;;26.53;17.37;;;4.10;99.90;;;;;;5072741;28;20189;-82
2022/12/03 08:40:47;;;;;;;27.37;17.73;;;4.10;99.90;;;;;;5073318;28;20284;-81
2022/12/03 08:43:19;;;;;;;29.70;18.23;;;4.10;99.90;;;;;;5072534;28;20200;-78
2022/12/03 08:45:48;;;;;;;28.30;18.07;;;4.10;99.90;;;;;;5072189;28;20216;-82
2022/12/03 08:48:43;;;;;;;30.07;18.27;;;4.10;99.90;;;;;;5072240;28;20297;-81
2022/12/03 08:51:19;;;;;;;30.43;18.20;;;4.20;99.90;;;;;;5083458;28;20374;-81
2022/12/03 08:53:48;;;;;;;28.93;17.70;;;4.20;99.90;;;;;;5092660;28;20698;-81
2022/12/03 08:56:22;;;;;;;29.10;18.80;;;4.10;99.90;;;;;;5092340;28;20197;-82
2022/12/03 08:58:53;;;;;;;30.77;18.90;;;4.10;99.90;;;;;;5078073;28;20483;-81
2022/12/03 09:01:37;;;;;;;29.83;18.03;;;4.10;99.90;;;;;;5072659;28;20197;-80
2022/12/03 09:04:38;;;;;;;30.63;19.17;;;4.10;99.90;;;;;;5075600;28;20570;-80
2022/12/03 09:07:06;;;;;;;28.27;17.47;;;4.10;99.90;;;;;;5012478;28;20198;-80
2022/12/03 09:09:33;;;;;;;30.03;18.50;;;4.10;99.90;;;;;;5019803;28;20215;-81
2022/12/03 09:12:02;;;;;;;30.13;19.00;;;4.20;99.90;;;;;;5052112;28;20201;-79
2022/12/03 09:14:28;;;;;;;33.57;21.20;;;4.20;99.90;;;;;;5074481;28;20213;-80
2022/12/03 09:16:56;;;;;;;34.33;21.23;;;4.20;99.90;;;;;;5075097;28;20217;-80
2022/12/03 09:19:23;;;;;;;30.63;20.33;;;4.30;99.90;;;;;;5074653;28;20216;-81
2022/12/03 09:21:50;;;;;;;32.20;20.17;;;4.30;99.90;;;;;;5075145;28;20201;-81
2022/12/03 09:24:18;;;;;;;31.30;19.70;;;4.40;99.90;;;;;;5075042;28;20216;-80
2022/12/03 09:26:45;;;;;;;32.27;20.83;;;4.40;99.90;;;;;;5074329;28;20221;-81
2022/12/03 09:29:12;;;;;;;34.33;20.33;;;4.40;99.90;;;;;;5075035;28;20283;-81
2022/12/03 09:31:39;;;;;;;32.97;20.30;;;4.40;99.90;;;;;;5075229;28;20610;-80
2022/12/03 09:34:06;;;;;;;36.23;21.10;;;4.30;99.90;;;;;;5074494;28;20291;-79
2022/12/03 09:36:33;;;;;;;32.37;19.53;;;4.40;99.90;;;;;;5074588;28;20201;-80
2022/12/03 09:39:00;;;;;;;30.60;19.13;;;4.40;99.90;;;;;;5074837;28;20201;-80
2022/12/03 09:41:29;;;;;;;33.37;21.30;;;4.40;99.90;;;;;;5074691;28;20209;-82
2022/12/03 09:43:56;;;;;;;32.87;19.87;;;4.30;99.90;;;;;;5075476;28;20265;-81
2022/12/03 09:46:23;;;;;;;29.77;18.50;;;4.30;99.90;;;;;;5087791;28;20584;-80
2022/12/03 09:48:50;;;;;;;28.57;18.53;;;4.30;99.90;;;;;;5094676;28;20219;-81
2022/12/03 09:51:18;;;;;;;29.73;19.17;;;4.40;99.90;;;;;;5087482;28;20510;-80
2022/12/03 09:53:46;;;;;;;30.13;19.67;;;4.40;99.90;;;;;;5074950;28;20541;-79
2022/12/03 09:56:20;;;;;;;29.87;19.10;;;4.40;99.90;;;;;;5085289;28;20257;-81
2022/12/03 09:58:49;;;;;;;29.80;18.87;;;4.40;99.90;;;;;;5094686;28;20198;-81
2022/12/03 10:01:16;;;;;;;32.93;20.17;;;4.40;99.90;;;;;;5094731;28;20211;-80
2022/12/03 10:03:46;;;;;;;32.90;19.20;;;4.50;99.90;;;;;;5081748;28;20210;-81
2022/12/03 10:06:17;;;;;;;34.63;19.87;;;4.50;99.90;;;;;;5074504;28;20266;-79
2022/12/03 10:08:47;;;;;;;31.37;19.63;;;4.50;99.90;;;;;;5074393;28;20189;-81
2022/12/03 10:11:15;;;;;;;33.23;21.33;;;4.50;99.90;;;;;;5074990;28;20185;-80
2022/12/03 10:13:42;;;;;;;30.20;20.63;;;4.50;99.90;;;;;;5073124;28;20201;-81
2022/12/03 10:16:14;;;;;;;32.23;20.50;;;4.50;99.90;;;;;;5073841;28;20213;-81
2022/12/03 10:18:44;;;;;;;30.70;20.60;;;4.50;99.90;;;;;;5073991;28;20210;-80
2022/12/03 10:21:18;;;;;;;33.33;22.20;;;4.50;99.90;;;;;;5074170;28;20625;-80
2022/12/03 10:23:45;;;;;;;34.53;22.43;;;4.50;99.90;;;;;;5073878;28;20626;-81
2022/12/03 10:26:13;;;;;;;34.87;21.10;;;4.50;99.90;;;;;;5085136;28;20225;-81
2022/12/03 10:28:42;;;;;;;33.60;21.73;;;4.50;99.90;;;;;;5093864;28;20248;-80
2022/12/03 10:31:11;;;;;;;32.40;21.17;;;4.50;99.90;;;;;;5093632;28;20584;-81
2022/12/03 10:33:43;;;;;;;33.90;23.43;;;4.50;99.90;;;;;;5094198;28;20196;-82
2022/12/03 10:36:19;;;;;;;36.37;23.13;;;4.50;99.90;;;;;;5086629;28;20200;-84
2022/12/03 10:38:46;;;;;;;36.20;23.03;;;4.60;99.90;;;;;;5094140;28;20200;-80
2022/12/03 10:41:25;;;;;;;37.67;23.73;;;4.60;99.90;;;;;;5094905;28;20205;-81
2022/12/03 10:43:52;;;;;;;38.37;23.60;;;4.60;99.90;;;;;;5094878;28;20315;-82
2022/12/03 10:46:21;;;;;;;35.93;22.70;;;4.60;99.90;;;;;;5094928;28;20699;-81
2022/12/03 10:49:10;;;;;;;38.13;22.80;;;4.60;99.90;;;;;;5089746;28;20208;-81
2022/12/03 10:51:39;;;;;;;36.43;22.73;;;4.50;99.90;;;;;;5072800;28;20300;-79
2022/12/03 10:54:15;;;;;;;39.67;22.40;;;4.40;99.90;;;;;;5073299;28;20205;-77
2022/12/03 10:56:42;;;;;;;35.03;22.10;;;4.40;99.90;;;;;;5074111;28;20280;-77
2022/12/03 10:59:15;;;;;;;36.07;22.60;;;4.40;99.90;;;;;;5072825;28;20202;-80
2022/12/03 11:01:44;;;;;;;36.13;22.67;;;4.40;99.90;;;;;;5073405;28;20212;-78
2022/12/03 11:04:20;;;;;;;38.70;22.47;;;4.40;99.90;;;;;;5073990;28;20233;-77
2022/12/03 11:06:47;;;;;;;41.47;24.27;;;4.30;99.90;;;;;;5072439;28;20282;-77
2022/12/03 11:09:18;;;;;;;39.90;23.13;;;4.30;99.90;;;;;;5072802;28;20205;-77
2022/12/03 11:11:45;;;;;;;35.90;22.10;;;4.30;99.90;;;;;;5072703;28;20234;-77
2022/12/03 11:14:12;;;;;;;38.67;22.70;;;4.30;99.90;;;;;;5072993;28;20719;-78
2022/12/03 11:17:08;;;;;;;35.57;22.37;;;4.30;99.90;;;;;;5085475;28;20651;-76
2022/12/03 11:19:49;;;;;;;36.53;22.30;;;4.30;99.90;;;;;;5012187;28;20302;-79
2022/12/03 11:22:28;;;;;;;41.70;22.17;;;4.30;99.90;;;;;;5072417;28;20213;-82
2022/12/03 11:25:48;;;;;;;38.57;22.97;;;4.20;99.90;;;;;;5072126;28;20200;-78
2022/12/03 11:28:53;;;;;;;37.97;21.17;;;4.20;99.90;;;;;;5072494;28;20233;-78
2022/12/03 11:31:38;;;;;;;37.23;22.57;;;4.20;99.90;;;;;;5072501;28;20254;-79
2022/12/03 11:34:48;;;;;;;41.70;22.60;;;4.20;99.90;;;;;;5072358;28;20201;-81
2022/12/03 11:37:26;;;;;;;37.07;22.37;;;4.20;99.90;;;;;;5072673;28;20209;-82
2022/12/03 11:40:25;;;;;;;39.57;23.10;;;4.20;99.90;;;;;;5073042;28;20201;-82
2022/12/03 11:42:52;;;;;;;36.50;21.37;;;4.20;99.90;;;;;;5073167;28;20202;-82
2022/12/03 11:45:29;;;;;;;38.60;22.80;;;4.30;99.90;;;;;;5073190;28;20200;-82
2022/12/03 11:48:12;;;;;;;40.87;23.17;;;4.20;99.90;;;;;;5072396;28;20249;-82
2022/12/03 11:50:40;;;;;;;38.57;21.80;;;4.20;99.90;;;;;;5072960;28;20189;-80
2022/12/03 11:53:18;;;;;;;39.53;23.23;;;4.20;99.90;;;;;;5072482;28;20216;-77
2022/12/03 11:55:51;;;;;;;39.03;22.50;;;4.20;99.90;;;;;;5071858;28;20201;-77
2022/12/03 11:58:23;;;;;;;39.73;23.03;;;4.20;99.90;;;;;;5072717;28;20227;-82
2022/12/03 12:00:52;;;;;;;37.37;21.60;;;4.20;99.90;;;;;;5073755;28;20343;-82
2022/12/03 12:03:23;;;;;;;36.53;22.23;;;4.20;99.90;;;;;;5073237;28;20193;-84
2022/12/03 12:06:05;;;;;;;38.97;22.03;;;4.20;99.90;;;;;;5072935;28;20209;-82
2022/12/03 12:08:35;;;;;;;34.53;20.57;;;4.20;99.90;;;;;;5071398;28;20209;-79
2022/12/03 12:11:02;;;;;;;35.57;23.03;;;4.20;99.90;;;;;;5072513;28;20203;-78
2022/12/03 12:13:54;;;;;;;37.63;23.23;;;4.20;99.90;;;;;;5072602;28;20193;-82
2022/12/03 12:16:44;;;;;;;37.70;21.93;;;4.20;99.90;;;;;;5075292;28;20216;-79
2022/12/03 12:19:31;;;;;;;40.83;23.73;;;4.00;99.90;;;;;;5095206;28;20580;-80
2022/12/03 12:22:13;;;;;;;37.13;22.70;;;4.00;99.90;;;;;;5112279;28;20211;-77
2022/12/03 12:24:50;;;;;;;41.07;23.27;;;3.90;99.90;;;;;;5086537;28;20205;-80
2022/12/03 12:27:18;;;;;;;36.10;22.10;;;3.90;99.90;;;;;;5072337;28;20591;-76
2022/12/03 12:29:50;;;;;;;36.17;22.33;;;3.90;99.90;;;;;;5071910;28;20194;-78
2022/12/03 12:32:21;;;;;;;36.30;21.70;;;3.90;99.90;;;;;;5072083;28;20491;-78
2022/12/03 12:34:51;;;;;;;35.97;21.93;;;3.90;99.90;;;;;;5092136;28;20204;-77
2022/12/03 12:37:21;;;;;;;36.17;21.00;;;3.80;99.90;;;;;;5095560;28;20777;-78
2022/12/03 12:39:52;;;;;;;34.57;20.90;;;3.80;99.90;;;;;;5096360;28;20291;-78
2022/12/03 12:42:29;;;;;;;34.20;20.13;;;3.80;99.90;;;;;;5095548;28;20210;-77
2022/12/03 12:44:59;;;;;;;36.93;22.20;;;3.80;99.90;;;;;;5075513;28;20289;-77
2022/12/03 12:47:28;;;;;;;31.83;19.67;;;3.80;99.90;;;;;;5075708;28;20273;-76
2022/12/03 12:49:55;;;;;;;39.43;22.27;;;3.80;99.90;;;;;;5075385;28;20504;-79
2022/12/03 12:52:22;;;;;;;33.70;20.80;;;3.70;99.90;;;;;;5074896;28;20198;-78
2022/12/03 12:54:50;;;;;;;35.13;20.17;;;3.70;99.90;;;;;;5093122;28;20499;-81
2022/12/03 12:57:22;;;;;;;34.80;20.87;;;3.70;99.90;;;;;;5095377;28;20204;-82
2022/12/03 12:59:49;;;;;;;34.03;21.07;;;3.60;99.90;;;;;;5096603;28;20192;-82
2022/12/03 13:02:37;;;;;;;34.77;20.03;;;3.50;99.90;;;;;;5082673;28;20205;-79
2022/12/03 13:05:05;;;;;;;34.70;20.20;;;3.50;99.90;;;;;;5077051;28;20194;-82
2022/12/03 13:07:32;;;;;;;36.40;19.30;;;3.50;99.90;;;;;;5076602;28;20225;-80